Oriibu — JD2579 — position and weather

sailwx.info

Track history (hours):
 
Tides and Currents Weather Stations Pressure Air Temp Water Temp Dewpoint Dewpoint Depression Visibility Wind Speed Wind Dir Waves Ship Positions

Oriibu

Last reported at 2017-Oct-10 16:29 UTC. Time now 2017-Oct-18 07:52 UTC.
Position N 34°35' E 135°27'.

Length 75 m; draft 3.6 m.

MMSI: 431000426.

Date/timePositionNaut miles runAvg speedWind from/ knotsBaromVisibWave heightAir tempDewpointWater temp
2017-Oct-10 16:29N 34°35' E 135°27'4 7.9
2017-Oct-10 15:59N 34°36' E 135°22'611.6
2017-Oct-10 15:30N 34°32' E 135°18'611.7
2017-Oct-10 15:00N 34°28' E 135°13'1511.9
2017-Oct-10 13:46N 34°15' E 135°03'312.1
2017-Oct-10 13:30N 34°14' E 135°07'1 1.1
2017-Oct-10 13:00N 34°15' E 135°07'0 0.0
2017-Oct-10 12:28N 34°15' E 135°07'0 0.0
2017-Oct-10 11:46N 34°15' E 135°07'0 0.0
2017-Oct-10 11:19N 34°15' E 135°07'0 0.0
2017-Oct-10 10:52N 34°15' E 135°07'0 0.0
2017-Oct-10 10:28N 34°15' E 135°07'0 0.0
2017-Oct-10 09:55N 34°15' E 135°07'0 0.0
2017-Oct-10 09:22N 34°15' E 135°07'0 0.0
2017-Oct-10 08:40N 34°15' E 135°07'0 0.0
2017-Oct-10 08:24N 34°15' E 135°07'1 2.0
2017-Oct-10 08:00N 34°15' E 135°06'0 0.2
2017-Oct-10 07:29N 34°15' E 135°06'0 0.0
2017-Oct-10 06:59N 34°15' E 135°06'0 0.0
2017-Oct-10 06:29N 34°15' E 135°06'0 0.0
2017-Oct-10 05:59N 34°15' E 135°06'0 0.0
2017-Oct-10 05:29N 34°15' E 135°06'1 1.8
2017-Oct-10 05:00N 34°15' E 135°05'1310.9
2017-Oct-10 03:51N 34°27' E 135°11'512.7
2017-Oct-10 03:29N 34°30' E 135°15'612.7
2017-Oct-10 03:00N 34°34' E 135°21'3 1.6
2017-Oct-10 01:18N 34°36' E 135°23'0 0.0
2017-Oct-10 01:00N 34°36' E 135°23'0 0.1
2017-Oct-10 00:24N 34°36' E 135°23'0 0.0
2017-Oct-09 23:48N 34°36' E 135°23'0 0.0
2017-Oct-09 23:30N 34°36' E 135°23'0 0.0
2017-Oct-09 23:00N 34°36' E 135°23'0 0.0
2017-Oct-09 22:30N 34°36' E 135°23'2 4.7
2017-Oct-09 22:00N 34°35' E 135°26'1 0.2
2017-Oct-09 15:51N 34°35' E 135°27'2 6.5
2017-Oct-09 15:30N 34°36' E 135°24'510.0
2017-Oct-09 15:00N 34°33' E 135°19'611.5
2017-Oct-09 14:30N 34°29' E 135°14'1711.8
2017-Oct-09 13:05N 34°15' E 135°03'111.8
2017-Oct-09 13:00N 34°15' E 135°05'2 4.5
2017-Oct-09 12:30N 34°15' E 135°07'0 0.0
2017-Oct-09 12:00N 34°15' E 135°07'0 0.0
2017-Oct-09 11:30N 34°15' E 135°07'0 0.0
2017-Oct-09 11:00N 34°15' E 135°07'0 0.0
2017-Oct-09 10:30N 34°15' E 135°07'0 0.0
2017-Oct-09 09:57N 34°15' E 135°07'0 0.0
2017-Oct-09 09:30N 34°15' E 135°07'0 0.0
2017-Oct-09 09:00N 34°15' E 135°07'0 0.0
2017-Oct-09 08:30N 34°15' E 135°07'0 0.0
2017-Oct-09 08:00N 34°15' E 135°07'0 0.0
2017-Oct-09 07:30N 34°15' E 135°07'0 0.0
2017-Oct-09 07:00N 34°15' E 135°07'0 0.0
2017-Oct-09 06:27N 34°15' E 135°07'0 0.1
2017-Oct-09 06:00N 34°15' E 135°07'0 0.0
2017-Oct-09 05:30N 34°15' E 135°07'0 0.0
2017-Oct-09 05:00N 34°15' E 135°07'0 0.0
2017-Oct-09 04:30N 34°15' E 135°07'0 0.0
2017-Oct-09 04:00N 34°15' E 135°07'0 0.9
2017-Oct-09 03:30N 34°14' E 135°07'2 2.8
2017-Oct-09 02:53N 34°15' E 135°05'0 0.0
2017-Oct-09 02:28N 34°15' E 135°05'0 0.0
2017-Oct-09 01:44N 34°15' E 135°05'0 0.0
2017-Oct-09 01:28N 34°15' E 135°05'0 0.0
2017-Oct-09 00:59N 34°15' E 135°05'0 0.0
2017-Oct-09 00:22N 34°15' E 135°05'0 0.1
2017-Oct-08 23:52N 34°15' E 135°05'0 0.0
2017-Oct-08 23:17N 34°15' E 135°05'0 0.0
2017-Oct-08 22:58N 34°15' E 135°05'0 0.0
2017-Oct-08 22:28N 34°15' E 135°05'0 0.0
2017-Oct-08 21:55N 34°15' E 135°05'0 0.0
2017-Oct-08 21:25N 34°15' E 135°05'0 0.0
2017-Oct-08 20:58N 34°15' E 135°05'0 0.0
2017-Oct-08 20:29N 34°15' E 135°05'0 0.1
2017-Oct-08 19:58N 34°15' E 135°05'0 0.0
2017-Oct-08 19:25N 34°15' E 135°05'0 0.0
2017-Oct-08 18:59N 34°15' E 135°05'0 0.0
2017-Oct-08 18:14N 34°15' E 135°05'0 0.0
2017-Oct-08 17:56N 34°15' E 135°05'0 0.1
2017-Oct-08 17:14N 34°15' E 135°05'0 0.0
2017-Oct-08 16:59N 34°15' E 135°05'0 0.1
2017-Oct-08 16:28N 34°15' E 135°05'0 0.0
2017-Oct-08 15:58N 34°15' E 135°05'0 0.0
2017-Oct-08 15:28N 34°15' E 135°05'0 0.0
2017-Oct-08 14:49N 34°15' E 135°05'0 0.1
2017-Oct-08 14:28N 34°15' E 135°05'0 0.1
2017-Oct-08 13:55N 34°15' E 135°05'0 0.0
2017-Oct-08 13:28N 34°15' E 135°05'0 0.3
2017-Oct-08 13:00N 34°15' E 135°05'4 7.7
2017-Oct-08 12:30N 34°19' E 135°04'712.6
2017-Oct-08 11:58N 34°25' E 135°03'611.9
2017-Oct-08 11:30N 34°31' E 135°03'510.4
2017-Oct-08 10:59N 34°36' E 135°02'510.7
2017-Oct-08 10:29N 34°37' E 134°56'  
Track history (hours):
 
Tides and Currents Weather Stations Pressure Air Temp Water Temp Dewpoint Dewpoint Depression Visibility Wind Speed Wind Dir Waves Ship Positions

Oriibu

Last reported at 2017-Oct-10 16:29 UTC. Time now 2017-Oct-18 07:52 UTC.
Position N 34°35' E 135°27'.

Length 75 m; draft 3.6 m.

MMSI: 431000426.

Date/timePositionNaut miles runAvg speedWind from/ knotsBaromVisibWave heightAir tempDewpointWater temp
2017-Oct-10 16:29N 34°35' E 135°27'4 7.9
2017-Oct-10 15:59N 34°36' E 135°22'611.6
2017-Oct-10 15:30N 34°32' E 135°18'611.7
2017-Oct-10 15:00N 34°28' E 135°13'1511.9
2017-Oct-10 13:46N 34°15' E 135°03'312.1
2017-Oct-10 13:30N 34°14' E 135°07'1 1.1
2017-Oct-10 13:00N 34°15' E 135°07'0 0.0
2017-Oct-10 12:28N 34°15' E 135°07'0 0.0
2017-Oct-10 11:46N 34°15' E 135°07'0 0.0
2017-Oct-10 11:19N 34°15' E 135°07'0 0.0
2017-Oct-10 10:52N 34°15' E 135°07'0 0.0
2017-Oct-10 10:28N 34°15' E 135°07'0 0.0
2017-Oct-10 09:55N 34°15' E 135°07'0 0.0
2017-Oct-10 09:22N 34°15' E 135°07'0 0.0
2017-Oct-10 08:40N 34°15' E 135°07'0 0.0
2017-Oct-10 08:24N 34°15' E 135°07'1 2.0
2017-Oct-10 08:00N 34°15' E 135°06'0 0.2
2017-Oct-10 07:29N 34°15' E 135°06'0 0.0
2017-Oct-10 06:59N 34°15' E 135°06'0 0.0
2017-Oct-10 06:29N 34°15' E 135°06'0 0.0
2017-Oct-10 05:59N 34°15' E 135°06'0 0.0
2017-Oct-10 05:29N 34°15' E 135°06'1 1.8
2017-Oct-10 05:00N 34°15' E 135°05'1310.9
2017-Oct-10 03:51N 34°27' E 135°11'512.7
2017-Oct-10 03:29N 34°30' E 135°15'612.7
2017-Oct-10 03:00N 34°34' E 135°21'3 1.6
2017-Oct-10 01:18N 34°36' E 135°23'0 0.0
2017-Oct-10 01:00N 34°36' E 135°23'0 0.1
2017-Oct-10 00:24N 34°36' E 135°23'0 0.0
2017-Oct-09 23:48N 34°36' E 135°23'0 0.0
2017-Oct-09 23:30N 34°36' E 135°23'0 0.0
2017-Oct-09 23:00N 34°36' E 135°23'0 0.0
2017-Oct-09 22:30N 34°36' E 135°23'2 4.7
2017-Oct-09 22:00N 34°35' E 135°26'1 0.2
2017-Oct-09 15:51N 34°35' E 135°27'2 6.5
2017-Oct-09 15:30N 34°36' E 135°24'510.0
2017-Oct-09 15:00N 34°33' E 135°19'611.5
2017-Oct-09 14:30N 34°29' E 135°14'1711.8
2017-Oct-09 13:05N 34°15' E 135°03'111.8
2017-Oct-09 13:00N 34°15' E 135°05'2 4.5
2017-Oct-09 12:30N 34°15' E 135°07'0 0.0
2017-Oct-09 12:00N 34°15' E 135°07'0 0.0
2017-Oct-09 11:30N 34°15' E 135°07'0 0.0
2017-Oct-09 11:00N 34°15' E 135°07'0 0.0
2017-Oct-09 10:30N 34°15' E 135°07'0 0.0
2017-Oct-09 09:57N 34°15' E 135°07'0 0.0
2017-Oct-09 09:30N 34°15' E 135°07'0 0.0
2017-Oct-09 09:00N 34°15' E 135°07'0 0.0
2017-Oct-09 08:30N 34°15' E 135°07'0 0.0
2017-Oct-09 08:00N 34°15' E 135°07'0 0.0
2017-Oct-09 07:30N 34°15' E 135°07'0 0.0
2017-Oct-09 07:00N 34°15' E 135°07'0 0.0
2017-Oct-09 06:27N 34°15' E 135°07'0 0.1
2017-Oct-09 06:00N 34°15' E 135°07'0 0.0
2017-Oct-09 05:30N 34°15' E 135°07'0 0.0
2017-Oct-09 05:00N 34°15' E 135°07'0 0.0
2017-Oct-09 04:30N 34°15' E 135°07'0 0.0
2017-Oct-09 04:00N 34°15' E 135°07'0 0.9
2017-Oct-09 03:30N 34°14' E 135°07'2 2.8
2017-Oct-09 02:53N 34°15' E 135°05'0 0.0
2017-Oct-09 02:28N 34°15' E 135°05'0 0.0
2017-Oct-09 01:44N 34°15' E 135°05'0 0.0
2017-Oct-09 01:28N 34°15' E 135°05'0 0.0
2017-Oct-09 00:59N 34°15' E 135°05'0 0.0
2017-Oct-09 00:22N 34°15' E 135°05'0 0.1
2017-Oct-08 23:52N 34°15' E 135°05'0 0.0
2017-Oct-08 23:17N 34°15' E 135°05'0 0.0
2017-Oct-08 22:58N 34°15' E 135°05'0 0.0
2017-Oct-08 22:28N 34°15' E 135°05'0 0.0
2017-Oct-08 21:55N 34°15' E 135°05'0 0.0
2017-Oct-08 21:25N 34°15' E 135°05'0 0.0
2017-Oct-08 20:58N 34°15' E 135°05'0 0.0
2017-Oct-08 20:29N 34°15' E 135°05'0 0.1
2017-Oct-08 19:58N 34°15' E 135°05'0 0.0
2017-Oct-08 19:25N 34°15' E 135°05'0 0.0
2017-Oct-08 18:59N 34°15' E 135°05'0 0.0
2017-Oct-08 18:14N 34°15' E 135°05'0 0.0
2017-Oct-08 17:56N 34°15' E 135°05'0 0.1
2017-Oct-08 17:14N 34°15' E 135°05'0 0.0
2017-Oct-08 16:59N 34°15' E 135°05'0 0.1
2017-Oct-08 16:28N 34°15' E 135°05'0 0.0
2017-Oct-08 15:58N 34°15' E 135°05'0 0.0
2017-Oct-08 15:28N 34°15' E 135°05'0 0.0
2017-Oct-08 14:49N 34°15' E 135°05'0 0.1
2017-Oct-08 14:28N 34°15' E 135°05'0 0.1
2017-Oct-08 13:55N 34°15' E 135°05'0 0.0
2017-Oct-08 13:28N 34°15' E 135°05'0 0.3
2017-Oct-08 13:00N 34°15' E 135°05'4 7.7
2017-Oct-08 12:30N 34°19' E 135°04'712.6
2017-Oct-08 11:58N 34°25' E 135°03'611.9
2017-Oct-08 11:30N 34°31' E 135°03'510.4
2017-Oct-08 10:59N 34°36' E 135°02'510.7
2017-Oct-08 10:29N 34°37' E 134°56'  

Dump ship's entire track history